sensor_id;sensor_type;location;lat;lon;timestamp;P1;durP1;ratioP1;P2;durP2;ratioP2
24995;SDS011;13016;52.162;21.034;2023-04-06T00:05:07;7.50;;;4.70;;
24995;SDS011;13016;52.162;21.034;2023-04-06T00:11:07;8.50;;;5.00;;
24995;SDS011;13016;52.162;21.034;2023-04-06T00:17:08;8.80;;;5.10;;
24995;SDS011;13016;52.162;21.034;2023-04-06T00:23:08;8.80;;;5.40;;
24995;SDS011;13016;52.162;21.034;2023-04-06T00:37:17;7.80;;;4.40;;
24995;SDS011;13016;52.162;21.034;2023-04-06T00:43:17;11.20;;;5.30;;
24995;SDS011;13016;52.162;21.034;2023-04-06T00:49:17;10.60;;;5.20;;
24995;SDS011;13016;52.162;21.034;2023-04-06T00:55:18;7.50;;;5.00;;
24995;SDS011;13016;52.162;21.034;2023-04-06T01:01:18;9.20;;;4.40;;
24995;SDS011;13016;52.162;21.034;2023-04-06T01:07:19;7.10;;;4.80;;
24995;SDS011;13016;52.162;21.034;2023-04-06T01:13:19;8.90;;;4.80;;
24995;SDS011;13016;52.162;21.034;2023-04-06T01:19:19;8.70;;;4.70;;
24995;SDS011;13016;52.162;21.034;2023-04-06T01:25:22;9.00;;;4.70;;
24995;SDS011;13016;52.162;21.034;2023-04-06T01:31:22;6.70;;;4.50;;
24995;SDS011;13016;52.162;21.034;2023-04-06T01:37:23;8.70;;;4.80;;
24995;SDS011;13016;52.162;21.034;2023-04-06T01:43:24;7.40;;;4.20;;
24995;SDS011;13016;52.162;21.034;2023-04-06T01:49:24;9.90;;;4.70;;
24995;SDS011;13016;52.162;21.034;2023-04-06T01:55:24;9.90;;;5.00;;
24995;SDS011;13016;52.162;21.034;2023-04-06T02:01:25;7.70;;;4.30;;
24995;SDS011;13016;52.162;21.034;2023-04-06T02:07:25;7.50;;;4.80;;
24995;SDS011;13016;52.162;21.034;2023-04-06T02:13:25;6.80;;;4.40;;
24995;SDS011;13016;52.162;21.034;2023-04-06T02:19:26;9.00;;;5.00;;
24995;SDS011;13016;52.162;21.034;2023-04-06T02:25:26;9.50;;;4.40;;
24995;SDS011;13016;52.162;21.034;2023-04-06T02:31:26;7.30;;;4.80;;
24995;SDS011;13016;52.162;21.034;2023-04-06T02:37:27;8.90;;;5.00;;
24995;SDS011;13016;52.162;21.034;2023-04-06T02:43:27;6.70;;;4.50;;
24995;SDS011;13016;52.162;21.034;2023-04-06T02:49:27;7.30;;;4.40;;
24995;SDS011;13016;52.162;21.034;2023-04-06T02:55:28;7.30;;;4.60;;
24995;SDS011;13016;52.162;21.034;2023-04-06T03:01:28;11.10;;;4.60;;
24995;SDS011;13016;52.162;21.034;2023-04-06T03:07:29;10.30;;;4.60;;
24995;SDS011;13016;52.162;21.034;2023-04-06T03:13:29;9.10;;;5.10;;
24995;SDS011;13016;52.162;21.034;2023-04-06T03:19:29;9.90;;;5.40;;
24995;SDS011;13016;52.162;21.034;2023-04-06T03:25:30;8.70;;;5.30;;
24995;SDS011;13016;52.162;21.034;2023-04-06T03:31:30;12.70;;;5.70;;
24995;SDS011;13016;52.162;21.034;2023-04-06T03:37:31;9.60;;;5.70;;
24995;SDS011;13016;52.162;21.034;2023-04-06T03:43:31;8.60;;;5.30;;
24995;SDS011;13016;52.162;21.034;2023-04-06T03:49:31;13.20;;;6.40;;
24995;SDS011;13016;52.162;21.034;2023-04-06T03:55:32;10.40;;;6.20;;
24995;SDS011;13016;52.162;21.034;2023-04-06T04:01:32;10.80;;;5.80;;
24995;SDS011;13016;52.162;21.034;2023-04-06T04:07:32;10.10;;;6.00;;
24995;SDS011;13016;52.162;21.034;2023-04-06T04:13:33;12.10;;;5.80;;
24995;SDS011;13016;52.162;21.034;2023-04-06T04:19:33;14.60;;;7.00;;
24995;SDS011;13016;52.162;21.034;2023-04-06T04:25:34;12.40;;;6.20;;
24995;SDS011;13016;52.162;21.034;2023-04-06T04:31:34;10.60;;;6.30;;
24995;SDS011;13016;52.162;21.034;2023-04-06T04:37:35;10.50;;;5.90;;
24995;SDS011;13016;52.162;21.034;2023-04-06T04:43:35;10.30;;;6.30;;
24995;SDS011;13016;52.162;21.034;2023-04-06T04:49:36;11.30;;;5.30;;
24995;SDS011;13016;52.162;21.034;2023-04-06T04:55:36;10.90;;;6.20;;
24995;SDS011;13016;52.162;21.034;2023-04-06T05:01:36;10.00;;;5.40;;
24995;SDS011;13016;52.162;21.034;2023-04-06T05:07:37;12.70;;;5.50;;
24995;SDS011;13016;52.162;21.034;2023-04-06T05:13:37;10.20;;;5.40;;
24995;SDS011;13016;52.162;21.034;2023-04-06T05:19:38;13.70;;;6.40;;
24995;SDS011;13016;52.162;21.034;2023-04-06T05:25:38;8.00;;;5.30;;
24995;SDS011;13016;52.162;21.034;2023-04-06T05:31:38;10.40;;;4.90;;
24995;SDS011;13016;52.162;21.034;2023-04-06T05:37:40;10.40;;;5.70;;
24995;SDS011;13016;52.162;21.034;2023-04-06T05:43:40;8.50;;;5.00;;
24995;SDS011;13016;52.162;21.034;2023-04-06T05:49:43;10.60;;;5.30;;
24995;SDS011;13016;52.162;21.034;2023-04-06T05:55:44;10.40;;;5.10;;
24995;SDS011;13016;52.162;21.034;2023-04-06T06:01:44;8.50;;;4.70;;
24995;SDS011;13016;52.162;21.034;2023-04-06T06:07:44;11.10;;;4.60;;
24995;SDS011;13016;52.162;21.034;2023-04-06T06:13:44;10.40;;;4.20;;
24995;SDS011;13016;52.162;21.034;2023-04-06T06:19:47;8.90;;;5.10;;
24995;SDS011;13016;52.162;21.034;2023-04-06T06:25:48;8.40;;;4.50;;
24995;SDS011;13016;52.162;21.034;2023-04-06T06:31:48;7.70;;;4.60;;
24995;SDS011;13016;52.162;21.034;2023-04-06T06:37:48;6.80;;;3.90;;
24995;SDS011;13016;52.162;21.034;2023-04-06T06:43:49;5.80;;;3.40;;
24995;SDS011;13016;52.162;21.034;2023-04-06T06:49:49;5.20;;;2.90;;
24995;SDS011;13016;52.162;21.034;2023-04-06T06:55:49;7.50;;;3.60;;
24995;SDS011;13016;52.162;21.034;2023-04-06T07:01:50;6.00;;;3.20;;
24995;SDS011;13016;52.162;21.034;2023-04-06T07:07:50;7.70;;;3.30;;
24995;SDS011;13016;52.162;21.034;2023-04-06T07:13:50;4.30;;;3.20;;
24995;SDS011;13016;52.162;21.034;2023-04-06T07:19:51;10.60;;;3.20;;
24995;SDS011;13016;52.162;21.034;2023-04-06T07:25:51;4.30;;;2.90;;
24995;SDS011;13016;52.162;21.034;2023-04-06T07:31:51;4.80;;;3.00;;
24995;SDS011;13016;52.162;21.034;2023-04-06T07:37:55;6.00;;;3.20;;
24995;SDS011;13016;52.162;21.034;2023-04-06T07:43:56;8.10;;;2.90;;
24995;SDS011;13016;52.162;21.034;2023-04-06T07:49:56;4.10;;;2.60;;
24995;SDS011;13016;52.162;21.034;2023-04-06T07:55:58;5.10;;;3.30;;
24995;SDS011;13016;52.162;21.034;2023-04-06T08:01:58;5.60;;;3.00;;
24995;SDS011;13016;52.162;21.034;2023-04-06T08:07:59;4.80;;;3.00;;
24995;SDS011;13016;52.162;21.034;2023-04-06T08:13:59;4.00;;;2.80;;
24995;SDS011;13016;52.162;21.034;2023-04-06T08:19:59;6.30;;;3.30;;
24995;SDS011;13016;52.162;21.034;2023-04-06T08:26:00;5.20;;;3.10;;
24995;SDS011;13016;52.162;21.034;2023-04-06T08:32:00;5.10;;;3.60;;
24995;SDS011;13016;52.162;21.034;2023-04-06T08:38:00;4.10;;;3.20;;
24995;SDS011;13016;52.162;21.034;2023-04-06T08:44:01;9.00;;;4.50;;
24995;SDS011;13016;52.162;21.034;2023-04-06T08:56:07;6.50;;;4.60;;
24995;SDS011;13016;52.162;21.034;2023-04-06T09:02:10;7.60;;;3.30;;
24995;SDS011;13016;52.162;21.034;2023-04-06T09:08:15;4.70;;;3.10;;
24995;SDS011;13016;52.162;21.034;2023-04-06T09:14:15;4.20;;;2.90;;
24995;SDS011;13016;52.162;21.034;2023-04-06T09:20:21;8.00;;;3.60;;
24995;SDS011;13016;52.162;21.034;2023-04-06T09:26:23;7.10;;;3.60;;
24995;SDS011;13016;52.162;21.034;2023-04-06T09:32:23;7.50;;;3.40;;
24995;SDS011;13016;52.162;21.034;2023-04-06T09:38:24;6.40;;;3.80;;
24995;SDS011;13016;52.162;21.034;2023-04-06T09:44:24;7.10;;;3.40;;
24995;SDS011;13016;52.162;21.034;2023-04-06T09:50:24;6.40;;;3.60;;
24995;SDS011;13016;52.162;21.034;2023-04-06T09:56:28;5.30;;;3.80;;
24995;SDS011;13016;52.162;21.034;2023-04-06T10:02:37;5.50;;;4.30;;
24995;SDS011;13016;52.162;21.034;2023-04-06T10:08:58;8.30;;;4.40;;
24995;SDS011;13016;52.162;21.034;2023-04-06T10:14:59;7.20;;;4.60;;
24995;SDS011;13016;52.162;21.034;2023-04-06T10:21:01;10.40;;;4.90;;
24995;SDS011;13016;52.162;21.034;2023-04-06T10:27:09;7.20;;;4.80;;
24995;SDS011;13016;52.162;21.034;2023-04-06T10:33:13;7.90;;;4.40;;
24995;SDS011;13016;52.162;21.034;2023-04-06T10:39:14;8.90;;;4.00;;
24995;SDS011;13016;52.162;21.034;2023-04-06T10:45:25;7.80;;;3.90;;
24995;SDS011;13016;52.162;21.034;2023-04-06T10:51:27;7.00;;;4.00;;
24995;SDS011;13016;52.162;21.034;2023-04-06T10:57:28;9.50;;;4.00;;
24995;SDS011;13016;52.162;21.034;2023-04-06T11:09:29;11.40;;;4.20;;
24995;SDS011;13016;52.162;21.034;2023-04-06T11:15:33;7.90;;;5.10;;
24995;SDS011;13016;52.162;21.034;2023-04-06T11:21:35;7.40;;;5.00;;
24995;SDS011;13016;52.162;21.034;2023-04-06T11:27:37;7.50;;;5.00;;
24995;SDS011;13016;52.162;21.034;2023-04-06T11:33:38;7.70;;;5.30;;
24995;SDS011;13016;52.162;21.034;2023-04-06T11:39:39;9.50;;;5.10;;
24995;SDS011;13016;52.162;21.034;2023-04-06T11:45:41;8.80;;;5.40;;
24995;SDS011;13016;52.162;21.034;2023-04-06T11:51:42;9.30;;;5.20;;
24995;SDS011;13016;52.162;21.034;2023-04-06T11:57:43;13.50;;;6.90;;
24995;SDS011;13016;52.162;21.034;2023-04-06T12:03:44;7.80;;;5.40;;
24995;SDS011;13016;52.162;21.034;2023-04-06T12:09:44;11.30;;;5.60;;
24995;SDS011;13016;52.162;21.034;2023-04-06T12:15:44;10.00;;;5.10;;
24995;SDS011;13016;52.162;21.034;2023-04-06T12:21:45;6.70;;;4.90;;
24995;SDS011;13016;52.162;21.034;2023-04-06T12:27:45;8.20;;;5.50;;
24995;SDS011;13016;52.162;21.034;2023-04-06T12:33:49;8.80;;;5.60;;
24995;SDS011;13016;52.162;21.034;2023-04-06T12:39:50;11.60;;;5.80;;
24995;SDS011;13016;52.162;21.034;2023-04-06T12:45:50;9.40;;;5.90;;
24995;SDS011;13016;52.162;21.034;2023-04-06T12:51:50;10.10;;;6.10;;
24995;SDS011;13016;52.162;21.034;2023-04-06T12:57:51;10.90;;;5.80;;
24995;SDS011;13016;52.162;21.034;2023-04-06T13:03:51;7.80;;;5.10;;
24995;SDS011;13016;52.162;21.034;2023-04-06T13:09:51;8.00;;;4.70;;
24995;SDS011;13016;52.162;21.034;2023-04-06T13:15:52;5.70;;;4.30;;
24995;SDS011;13016;52.162;21.034;2023-04-06T13:21:53;9.30;;;4.20;;
24995;SDS011;13016;52.162;21.034;2023-04-06T13:27:54;8.70;;;4.30;;
24995;SDS011;13016;52.162;21.034;2023-04-06T13:33:54;5.50;;;4.40;;
24995;SDS011;13016;52.162;21.034;2023-04-06T13:39:54;6.10;;;4.50;;
24995;SDS011;13016;52.162;21.034;2023-04-06T13:45:55;7.70;;;5.30;;
24995;SDS011;13016;52.162;21.034;2023-04-06T13:51:57;7.70;;;4.90;;
24995;SDS011;13016;52.162;21.034;2023-04-06T13:57:57;5.90;;;4.70;;
24995;SDS011;13016;52.162;21.034;2023-04-06T14:03:57;7.30;;;4.40;;
24995;SDS011;13016;52.162;21.034;2023-04-06T14:09:58;6.10;;;4.30;;
24995;SDS011;13016;52.162;21.034;2023-04-06T14:15:58;7.90;;;4.50;;
24995;SDS011;13016;52.162;21.034;2023-04-06T14:21:58;7.50;;;4.70;;
24995;SDS011;13016;52.162;21.034;2023-04-06T14:27:59;8.20;;;5.00;;
24995;SDS011;13016;52.162;21.034;2023-04-06T14:34:00;6.10;;;4.50;;
24995;SDS011;13016;52.162;21.034;2023-04-06T14:40:02;6.80;;;4.00;;
24995;SDS011;13016;52.162;21.034;2023-04-06T14:46:03;6.00;;;4.30;;
24995;SDS011;13016;52.162;21.034;2023-04-06T14:52:04;6.80;;;4.30;;
24995;SDS011;13016;52.162;21.034;2023-04-06T14:58:04;8.60;;;4.10;;
24995;SDS011;13016;52.162;21.034;2023-04-06T15:04:04;6.40;;;4.60;;
24995;SDS011;13016;52.162;21.034;2023-04-06T15:10:05;7.80;;;4.50;;
24995;SDS011;13016;52.162;21.034;2023-04-06T15:16:06;8.40;;;4.50;;
24995;SDS011;13016;52.162;21.034;2023-04-06T15:22:07;6.30;;;4.30;;
24995;SDS011;13016;52.162;21.034;2023-04-06T15:28:07;7.50;;;4.70;;
24995;SDS011;13016;52.162;21.034;2023-04-06T15:34:07;7.30;;;4.60;;
24995;SDS011;13016;52.162;21.034;2023-04-06T15:40:08;7.80;;;4.40;;
24995;SDS011;13016;52.162;21.034;2023-04-06T15:46:08;8.70;;;4.70;;
24995;SDS011;13016;52.162;21.034;2023-04-06T15:52:09;7.40;;;4.70;;
24995;SDS011;13016;52.162;21.034;2023-04-06T15:58:11;6.70;;;4.50;;
24995;SDS011;13016;52.162;21.034;2023-04-06T16:04:11;9.60;;;4.90;;
24995;SDS011;13016;52.162;21.034;2023-04-06T16:10:11;10.30;;;4.70;;
24995;SDS011;13016;52.162;21.034;2023-04-06T16:16:12;8.70;;;4.80;;
24995;SDS011;13016;52.162;21.034;2023-04-06T16:22:12;12.10;;;4.90;;
24995;SDS011;13016;52.162;21.034;2023-04-06T16:28:13;9.20;;;4.90;;
24995;SDS011;13016;52.162;21.034;2023-04-06T16:34:13;9.10;;;5.00;;
24995;SDS011;13016;52.162;21.034;2023-04-06T16:40:14;7.40;;;5.30;;
24995;SDS011;13016;52.162;21.034;2023-04-06T16:46:15;7.20;;;4.80;;
24995;SDS011;13016;52.162;21.034;2023-04-06T16:52:15;8.30;;;5.00;;
24995;SDS011;13016;52.162;21.034;2023-04-06T16:58:16;9.10;;;5.40;;
24995;SDS011;13016;52.162;21.034;2023-04-06T17:04:16;8.40;;;5.10;;
24995;SDS011;13016;52.162;21.034;2023-04-06T17:10:16;6.90;;;5.00;;
24995;SDS011;13016;52.162;21.034;2023-04-06T17:16:17;9.50;;;5.10;;
24995;SDS011;13016;52.162;21.034;2023-04-06T17:22:17;14.30;;;7.60;;
24995;SDS011;13016;52.162;21.034;2023-04-06T17:28:17;9.20;;;5.20;;
24995;SDS011;13016;52.162;21.034;2023-04-06T17:34:18;8.80;;;5.10;;
24995;SDS011;13016;52.162;21.034;2023-04-06T17:40:18;8.60;;;5.30;;
24995;SDS011;13016;52.162;21.034;2023-04-06T17:46:18;10.20;;;5.50;;
24995;SDS011;13016;52.162;21.034;2023-04-06T17:52:19;9.00;;;5.80;;
24995;SDS011;13016;52.162;21.034;2023-04-06T17:58:19;9.70;;;5.80;;
24995;SDS011;13016;52.162;21.034;2023-04-06T18:04:20;8.60;;;6.00;;
24995;SDS011;13016;52.162;21.034;2023-04-06T18:10:20;10.30;;;6.30;;
24995;SDS011;13016;52.162;21.034;2023-04-06T18:22:21;11.90;;;6.30;;
24995;SDS011;13016;52.162;21.034;2023-04-06T18:28:22;11.30;;;6.40;;
24995;SDS011;13016;52.162;21.034;2023-04-06T18:34:23;10.60;;;6.80;;
24995;SDS011;13016;52.162;21.034;2023-04-06T18:40:33;12.80;;;7.50;;
24995;SDS011;13016;52.162;21.034;2023-04-06T18:46:35;13.00;;;6.90;;
24995;SDS011;13016;52.162;21.034;2023-04-06T18:52:35;11.20;;;6.00;;
24995;SDS011;13016;52.162;21.034;2023-04-06T18:58:36;8.20;;;6.10;;
24995;SDS011;13016;52.162;21.034;2023-04-06T19:04:36;10.20;;;6.40;;
24995;SDS011;13016;52.162;21.034;2023-04-06T19:10:37;10.00;;;6.90;;
24995;SDS011;13016;52.162;21.034;2023-04-06T19:16:40;8.50;;;6.30;;
24995;SDS011;13016;52.162;21.034;2023-04-06T19:22:41;7.50;;;5.20;;
24995;SDS011;13016;52.162;21.034;2023-04-06T19:28:41;7.60;;;5.60;;
24995;SDS011;13016;52.162;21.034;2023-04-06T19:34:42;7.50;;;5.40;;
24995;SDS011;13016;52.162;21.034;2023-04-06T19:40:42;7.70;;;5.80;;
24995;SDS011;13016;52.162;21.034;2023-04-06T19:46:43;8.90;;;5.40;;
24995;SDS011;13016;52.162;21.034;2023-04-06T19:52:46;7.10;;;5.70;;
24995;SDS011;13016;52.162;21.034;2023-04-06T19:58:46;7.30;;;5.40;;
24995;SDS011;13016;52.162;21.034;2023-04-06T20:04:46;8.90;;;5.70;;
24995;SDS011;13016;52.162;21.034;2023-04-06T20:10:47;7.30;;;5.00;;
24995;SDS011;13016;52.162;21.034;2023-04-06T20:16:47;6.50;;;4.50;;
24995;SDS011;13016;52.162;21.034;2023-04-06T20:22:49;6.80;;;5.10;;
24995;SDS011;13016;52.162;21.034;2023-04-06T20:28:49;6.40;;;4.80;;
24995;SDS011;13016;52.162;21.034;2023-04-06T20:34:50;7.20;;;5.50;;
24995;SDS011;13016;52.162;21.034;2023-04-06T20:40:50;8.10;;;5.50;;
24995;SDS011;13016;52.162;21.034;2023-04-06T20:46:55;8.50;;;5.80;;
24995;SDS011;13016;52.162;21.034;2023-04-06T20:52:55;10.00;;;7.70;;
24995;SDS011;13016;52.162;21.034;2023-04-06T20:58:56;13.10;;;8.90;;
24995;SDS011;13016;52.162;21.034;2023-04-06T21:04:58;10.50;;;7.70;;
24995;SDS011;13016;52.162;21.034;2023-04-06T21:10:58;10.30;;;7.30;;
24995;SDS011;13016;52.162;21.034;2023-04-06T21:16:58;10.60;;;7.60;;
24995;SDS011;13016;52.162;21.034;2023-04-06T21:22:59;13.60;;;9.20;;
24995;SDS011;13016;52.162;21.034;2023-04-06T21:28:59;14.00;;;9.10;;
24995;SDS011;13016;52.162;21.034;2023-04-06T21:35:06;15.30;;;9.80;;
24995;SDS011;13016;52.162;21.034;2023-04-06T21:41:07;14.80;;;9.40;;
24995;SDS011;13016;52.162;21.034;2023-04-06T21:47:08;15.30;;;9.60;;
24995;SDS011;13016;52.162;21.034;2023-04-06T21:53:08;17.20;;;10.90;;
24995;SDS011;13016;52.162;21.034;2023-04-06T21:59:09;19.90;;;11.40;;
24995;SDS011;13016;52.162;21.034;2023-04-06T22:05:09;17.20;;;11.40;;
24995;SDS011;13016;52.162;21.034;2023-04-06T22:11:09;18.70;;;10.90;;
24995;SDS011;13016;52.162;21.034;2023-04-06T22:17:10;18.00;;;11.50;;
24995;SDS011;13016;52.162;21.034;2023-04-06T22:23:10;17.70;;;11.00;;
24995;SDS011;13016;52.162;21.034;2023-04-06T22:29:11;14.90;;;10.00;;
24995;SDS011;13016;52.162;21.034;2023-04-06T22:35:12;13.10;;;9.50;;
24995;SDS011;13016;52.162;21.034;2023-04-06T22:41:12;15.70;;;9.80;;
24995;SDS011;13016;52.162;21.034;2023-04-06T22:47:12;15.10;;;9.50;;
24995;SDS011;13016;52.162;21.034;2023-04-06T22:53:13;12.50;;;8.40;;
24995;SDS011;13016;52.162;21.034;2023-04-06T22:59:13;12.10;;;8.90;;
24995;SDS011;13016;52.162;21.034;2023-04-06T23:05:16;13.60;;;9.60;;
24995;SDS011;13016;52.162;21.034;2023-04-06T23:11:17;15.30;;;9.60;;
24995;SDS011;13016;52.162;21.034;2023-04-06T23:17:17;15.70;;;9.60;;
24995;SDS011;13016;52.162;21.034;2023-04-06T23:23:18;13.70;;;9.60;;
24995;SDS011;13016;52.162;21.034;2023-04-06T23:29:18;12.60;;;8.90;;
24995;SDS011;13016;52.162;21.034;2023-04-06T23:35:19;15.40;;;10.20;;
24995;SDS011;13016;52.162;21.034;2023-04-06T23:41:19;21.50;;;12.80;;
24995;SDS011;13016;52.162;21.034;2023-04-06T23:47:20;17.40;;;10.70;;
24995;SDS011;13016;52.162;21.034;2023-04-06T23:53:20;15.70;;;11.00;;
24995;SDS011;13016;52.162;21.034;2023-04-06T23:59:21;16.60;;;10.70;;
